Time;durP1;ratioP1;P1;durP2;ratioP2;P2;SDS_P1;SDS_P2;PMS_P1;PMS_P2;Temp;Humidity;BMP_temperature;BMP_pressure;BME280_temperature;BME280_humidity;BME280_pressure;Samples;Min_cycle;Max_cycle;Signal;HPM_P1;HPM_P2
2021/01/10 00:00:44;;;;;;;11.45;2.75;;;;;;;25.10;37.59;98860.66;4955512;28;20211;-67
2021/01/10 00:03:13;;;;;;;10.23;2.78;;;;;;;25.06;36.67;98862.84;4956406;28;20230;-67
2021/01/10 00:05:41;;;;;;;6.50;1.60;;;;;;;25.13;37.02;98860.34;4937996;29;20555;-66
2021/01/10 00:08:08;;;;;;;5.68;2.05;;;;;;;25.07;37.04;98861.00;4938575;29;20572;-67
2021/01/10 00:10:34;;;;;;;8.73;2.10;;;;;;;24.98;35.57;98862.84;4939381;29;20225;-67
2021/01/10 00:13:02;;;;;;;7.22;2.22;;;;;;;25.01;36.73;98857.13;4937738;29;20199;-67
2021/01/10 00:15:28;;;;;;;6.82;1.83;;;;;;;25.04;37.09;98850.63;4953541;29;20249;-67
2021/01/10 00:17:55;;;;;;;5.80;1.80;;;;;;;25.00;37.86;98850.13;4957746;28;20206;-67
2021/01/10 00:20:22;;;;;;;4.88;2.00;;;;;;;25.01;36.21;98849.09;4956730;28;20242;-67
2021/01/10 00:22:50;;;;;;;6.13;1.88;;;;;;;25.07;37.67;98856.47;4956297;28;20420;-67
2021/01/10 00:25:16;;;;;;;6.03;2.13;;;;;;;25.05;36.92;98855.81;4955451;28;20206;-67
2021/01/10 00:27:43;;;;;;;9.57;1.95;;;;;;;25.10;36.58;98849.97;4953792;28;20621;-67
2021/01/10 00:30:11;;;;;;;5.05;2.03;;;;;;;25.04;37.97;98848.78;4951604;28;20225;-66
2021/01/10 00:32:37;;;;;;;4.88;1.85;;;;;;;25.07;37.33;98851.13;4954431;28;20689;-67
2021/01/10 00:35:04;;;;;;;4.20;1.75;;;;;;;25.10;37.71;98850.78;4954291;28;20302;-67
2021/01/10 00:37:31;;;;;;;7.40;1.95;;;;;;;25.07;37.10;98855.66;4955104;28;20674;-67
2021/01/10 00:39:57;;;;;;;21.20;2.05;;;;;;;25.07;37.11;98861.81;4954296;28;20233;-67
2021/01/10 00:42:23;;;;;;;6.25;1.92;;;;;;;25.07;38.04;98856.47;4954169;28;20211;-66
2021/01/10 00:44:49;;;;;;;5.50;1.85;;;;;;;25.10;37.72;98866.84;4953589;28;20210;-66
2021/01/10 00:47:17;;;;;;;5.95;2.00;;;;;;;25.12;36.80;98864.84;4954606;28;20211;-67
2021/01/10 00:49:44;;;;;;;3.58;1.83;;;;;;;25.17;37.96;98861.66;4954131;28;20231;-67
2021/01/10 00:52:10;;;;;;;4.60;1.80;;;;;;;25.15;37.42;98863.69;4953172;28;20213;-67
2021/01/10 00:54:37;;;;;;;3.90;1.90;;;;;;;25.16;36.91;98864.50;4953657;28;20514;-68
2021/01/10 00:57:04;;;;;;;4.18;1.73;;;;;;;25.09;37.42;98865.16;4952385;28;20661;-66
2021/01/10 00:59:30;;;;;;;4.75;1.83;;;;;;;25.12;37.23;98870.19;4955042;28;20264;-67
2021/01/10 01:01:56;;;;;;;2.97;1.70;;;;;;;25.05;37.44;98868.38;4953740;28;20613;-67
2021/01/10 01:04:23;;;;;;;4.55;1.70;;;;;;;25.04;37.39;98872.03;4952924;28;20389;-67
2021/01/10 01:06:50;;;;;;;5.43;1.85;;;;;;;24.97;36.89;98869.19;4954223;28;20394;-67
2021/01/10 01:09:16;;;;;;;5.32;1.40;;;;;;;25.00;37.35;98874.19;4953342;28;20222;-66
2021/01/10 01:11:43;;;;;;;3.30;1.55;;;;;;;24.91;37.32;98876.03;4952251;28;20211;-66
2021/01/10 01:14:11;;;;;;;3.30;1.58;;;;;;;24.88;37.60;98875.50;4953972;28;20667;-67
2021/01/10 01:16:39;;;;;;;4.43;1.92;;;;;;;24.89;38.09;98885.22;4954110;28;20206;-66
2021/01/10 01:19:05;;;;;;;2.50;1.45;;;;;;;24.86;37.33;98881.03;4954605;28;20227;-67
2021/01/10 01:21:31;;;;;;;3.88;1.75;;;;;;;24.87;37.68;98881.88;4953807;28;20210;-67
2021/01/10 01:23:57;;;;;;;3.22;1.58;;;;;;;24.90;37.71;98878.88;4953313;28;20233;-67
2021/01/10 01:26:25;;;;;;;7.55;2.30;;;;;;;24.82;38.29;98884.22;4953288;28;20291;-66
2021/01/10 01:28:53;;;;;;;3.10;1.70;;;;;;;24.82;37.48;98878.88;4951994;28;20429;-67
2021/01/10 01:31:21;;;;;;;3.08;1.67;;;;;;;24.80;38.43;98886.19;4952824;28;20214;-67
2021/01/10 01:33:47;;;;;;;4.78;2.13;;;;;;;24.73;37.63;98888.69;4953496;28;20261;-67
2021/01/10 01:36:17;;;;;;;3.33;1.77;;;;;;;24.76;37.77;98885.69;4951816;28;20209;-66
2021/01/10 01:38:44;;;;;;;4.80;1.80;;;;;;;24.69;38.22;98890.84;4952628;28;20231;-66
2021/01/10 01:41:11;;;;;;;3.42;1.70;;;;;;;24.67;37.95;98894.72;4953397;28;20211;-67
2021/01/10 01:43:38;;;;;;;6.22;1.77;;;;;;;24.69;37.98;98890.03;4953850;28;20239;-66
2021/01/10 01:46:08;;;;;;;3.88;1.60;;;;;;;24.66;38.54;98895.69;4953101;28;20261;-66
2021/01/10 01:48:36;;;;;;;4.00;1.67;;;;;;;24.62;37.65;98895.19;4952825;28;20329;-67
2021/01/10 01:51:04;;;;;;;3.58;1.60;;;;;;;24.60;37.88;98899.00;4952847;28;20213;-67
2021/01/10 01:53:30;;;;;;;3.40;1.83;;;;;;;24.57;37.94;98902.88;4953678;28;20212;-67
2021/01/10 01:55:58;;;;;;;2.70;1.50;;;;;;;24.61;38.38;98901.53;4952886;28;20207;-67
2021/01/10 01:58:25;;;;;;;4.90;1.80;;;;;;;24.64;37.59;98908.41;4952982;28;20716;-69
2021/01/10 02:00:51;;;;;;;3.33;1.80;;;;;;;24.67;37.38;98913.44;4953002;28;20578;-66
2021/01/10 02:03:26;;;;;;;2.88;1.30;;;;;;;24.66;37.67;98919.75;4951586;28;20233;-66
2021/01/10 02:05:56;;;;;;;3.13;1.55;;;;;;;24.62;37.99;98916.56;4954250;28;20206;-66
2021/01/10 02:08:27;;;;;;;3.25;1.60;;;;;;;24.61;37.89;98914.06;4953767;28;20213;-67
2021/01/10 02:10:56;;;;;;;4.53;1.42;;;;;;;24.65;38.60;98910.91;4953939;28;20547;-67
2021/01/10 02:13:23;;;;;;;4.25;1.58;;;;;;;24.60;38.04;98904.38;4955199;28;20215;-67
2021/01/10 02:15:53;;;;;;;3.88;1.58;;;;;;;24.51;37.08;98903.47;4952069;28;20558;-67
2021/01/10 02:18:21;;;;;;;3.47;1.83;;;;;;;24.56;38.02;98898.50;4952783;28;20216;-67
2021/01/10 02:20:48;;;;;;;2.90;1.75;;;;;;;24.56;37.54;98890.50;4952486;28;20272;-67
2021/01/10 02:23:19;;;;;;;2.40;1.40;;;;;;;24.49;38.33;98894.78;4950824;28;20222;-65
2021/01/10 02:25:48;;;;;;;4.53;1.70;;;;;;;24.49;37.97;98906.31;4952864;28;20214;-67
2021/01/10 02:28:17;;;;;;;2.28;1.50;;;;;;;24.45;37.82;98898.78;4953526;28;20310;-67
2021/01/10 02:30:45;;;;;;;3.38;1.42;;;;;;;24.43;38.13;98892.75;4954133;28;20269;-67
2021/01/10 02:33:18;;;;;;;4.90;1.90;;;;;;;24.46;38.12;98897.78;4951483;28;20668;-67
2021/01/10 02:35:46;;;;;;;2.17;1.58;;;;;;;24.45;38.82;98896.97;4951743;28;20203;-67
2021/01/10 02:38:42;;;;;;;2.75;1.30;;;;;;;24.33;38.23;98899.09;4951878;28;20225;-67
2021/01/10 02:41:25;;;;;;;3.45;1.70;;;;;;;24.44;38.40;98892.59;4942887;28;20215;-67
2021/01/10 02:44:07;;;;;;;2.92;1.48;;;;;;;24.42;38.48;98891.09;4952434;28;20257;-67
2021/01/10 02:46:35;;;;;;;1.90;1.42;;;;;;;24.38;38.86;98893.25;4952909;28;20210;-67
2021/01/10 02:49:01;;;;;;;3.15;1.52;;;;;;;24.35;38.15;98889.06;4953022;28;20248;-67
2021/01/10 02:51:27;;;;;;;3.65;1.70;;;;;;;24.42;38.10;98893.78;4948875;28;20203;-67
2021/01/10 02:53:53;;;;;;;2.13;1.30;;;;;;;24.32;38.77;98888.56;4951149;28;20253;-66
2021/01/10 02:56:20;;;;;;;1.80;1.30;;;;;;;24.31;37.74;98886.88;4952319;28;20207;-67
2021/01/10 02:58:51;;;;;;;2.20;1.20;;;;;;;24.30;38.66;98883.38;4950697;28;20227;-67
2021/01/10 03:01:18;;;;;;;2.17;1.40;;;;;;;24.23;38.84;98884.16;4953288;28;20207;-67
2021/01/10 03:03:45;;;;;;;3.67;1.45;;;;;;;24.27;38.70;98877.53;4951474;28;20694;-67
2021/01/10 03:06:12;;;;;;;2.25;1.75;;;;;;;24.28;37.69;98876.50;4951105;28;20293;-68
2021/01/10 03:08:39;;;;;;;2.45;1.60;;;;;;;24.24;38.86;98884.00;4949610;28;20234;-67
2021/01/10 03:11:05;;;;;;;2.67;1.55;;;;;;;24.25;38.16;98880.34;4950412;28;20273;-67
2021/01/10 03:13:33;;;;;;;2.47;1.70;;;;;;;24.24;38.59;98870.66;4951280;28;20207;-67
2021/01/10 03:16:00;;;;;;;1.85;1.33;;;;;;;24.27;38.08;98870.34;4952686;28;20290;-67
2021/01/10 03:18:26;;;;;;;1.77;1.38;;;;;;;24.22;38.58;98871.81;4952545;28;20234;-67
2021/01/10 03:20:52;;;;;;;1.77;1.40;;;;;;;24.24;38.68;98864.47;4951441;28;20221;-68
2021/01/10 03:23:18;;;;;;;2.67;1.40;;;;;;;24.25;38.71;98864.31;4952485;28;20237;-66
2021/01/10 03:25:45;;;;;;;5.35;1.67;;;;;;;24.22;38.62;98861.97;4951534;28;20195;-67
2021/01/10 03:28:11;;;;;;;1.80;1.10;;;;;;;24.18;39.00;98861.47;4950930;28;20642;-65
2021/01/10 03:30:38;;;;;;;2.17;1.30;;;;;;;24.32;38.04;98861.84;4950038;28;20218;-66
2021/01/10 03:33:05;;;;;;;1.50;1.38;;;;;;;24.34;38.71;98855.31;4951456;28;20203;-67
2021/01/10 03:35:34;;;;;;;3.15;1.55;;;;;;;24.37;38.02;98854.16;4950416;28;20213;-67
2021/01/10 03:38:00;;;;;;;2.35;1.35;;;;;;;24.37;38.33;98855.00;4952159;28;20282;-66
2021/01/10 03:40:27;;;;;;;2.42;1.20;;;;;;;24.46;38.10;98852.34;4950855;28;20713;-67
2021/01/10 03:42:53;;;;;;;2.45;1.20;;;;;;;24.39;38.29;98847.66;4949766;28;20199;-67
2021/01/10 03:45:19;;;;;;;1.75;1.30;;;;;;;24.44;38.41;98855.19;4951278;28;20260;-67
2021/01/10 03:47:46;;;;;;;2.42;1.17;;;;;;;24.45;37.96;98856.00;4950002;28;20218;-64
2021/01/10 03:50:12;;;;;;;1.98;1.33;;;;;;;24.46;37.22;98852.34;4949190;28;20222;-66
2021/01/10 03:52:38;;;;;;;2.38;1.30;;;;;;;24.38;38.68;98858.50;4951153;28;20203;-67
2021/01/10 03:55:05;;;;;;;3.90;1.88;;;;;;;24.37;37.75;98859.50;4949652;28;20237;-67
2021/01/10 03:57:31;;;;;;;1.75;1.30;;;;;;;24.43;38.80;98860.69;4951034;28;20288;-67
2021/01/10 03:59:58;;;;;;;2.13;1.35;;;;;;;24.50;37.55;98859.88;4950647;28;20229;-67
2021/01/10 04:02:24;;;;;;;2.63;1.30;;;;;;;24.50;37.48;98867.06;4956352;28;20282;-67
2021/01/10 04:04:51;;;;;;;2.45;1.38;;;;;;;24.52;37.35;98867.75;4954247;28;20287;-72
2021/01/10 04:07:17;;;;;;;4.75;1.10;;;;;;;24.60;38.13;98864.25;4954695;28;20655;-67
2021/01/10 04:09:43;;;;;;;3.40;1.15;;;;;;;24.56;38.26;98869.09;4953205;28;20250;-67
2021/01/10 04:12:09;;;;;;;1.55;1.25;;;;;;;24.43;38.64;98858.88;4953734;28;20547;-66
2021/01/10 04:14:35;;;;;;;2.53;1.63;;;;;;;24.44;37.59;98865.03;4955016;28;20294;-67
2021/01/10 04:17:02;;;;;;;4.07;1.30;;;;;;;24.49;37.98;98862.72;4965652;28;20225;-67
2021/01/10 04:19:28;;;;;;;2.88;1.30;;;;;;;24.50;37.54;98859.06;4973780;28;20241;-67
2021/01/10 04:21:55;;;;;;;2.15;1.48;;;;;;;24.46;37.98;98868.38;4974399;28;20209;-67
2021/01/10 04:24:21;;;;;;;2.65;1.17;;;;;;;24.47;38.35;98865.56;4974569;28;20285;-67
2021/01/10 04:26:48;;;;;;;2.45;1.35;;;;;;;24.45;37.99;98866.69;4972312;28;20206;-67
2021/01/10 04:29:15;;;;;;;2.25;1.40;;;;;;;24.35;38.62;98865.03;4973119;28;20225;-67
2021/01/10 04:31:42;;;;;;;1.60;1.40;;;;;;;24.34;37.61;98862.50;4974938;28;20234;-67
2021/01/10 04:34:08;;;;;;;1.85;1.10;;;;;;;24.43;37.83;98863.34;4958655;28;20202;-67
2021/01/10 04:36:35;;;;;;;1.48;1.10;;;;;;;24.27;37.79;98867.66;4953497;28;20210;-67
2021/01/10 04:39:02;;;;;;;2.65;1.40;;;;;;;24.32;37.63;98873.34;4953005;28;20257;-67
2021/01/10 04:41:28;;;;;;;1.90;1.20;;;;;;;24.33;38.42;98869.69;4954101;28;20260;-66
2021/01/10 04:43:54;;;;;;;2.00;1.20;;;;;;;24.29;38.45;98871.00;4952270;28;20222;-67
2021/01/10 04:46:23;;;;;;;3.28;1.50;;;;;;;24.32;38.36;98876.03;4951023;28;20586;-67
2021/01/10 04:48:49;;;;;;;1.98;1.33;;;;;;;24.36;38.18;98869.38;4955652;28;20281;-67
2021/01/10 04:51:16;;;;;;;2.63;1.40;;;;;;;24.42;37.74;98861.72;4952776;28;20275;-67
2021/01/10 04:53:46;;;;;;;1.85;1.30;;;;;;;24.28;38.19;98868.50;4953782;28;20211;-67
2021/01/10 04:56:16;;;;;;;1.73;1.38;;;;;;;24.27;37.99;98867.66;4954163;28;20262;-68
2021/01/10 04:58:43;;;;;;;1.63;1.20;;;;;;;24.37;37.43;98863.00;4954376;28;20738;-66
2021/01/10 05:01:16;;;;;;;2.72;1.60;;;;;;;24.28;38.23;98861.34;4953553;28;20206;-67
2021/01/10 05:03:43;;;;;;;3.80;1.13;;;;;;;24.19;37.93;98865.78;4953774;28;20595;-65
2021/01/10 05:06:09;;;;;;;2.25;1.05;;;;;;;24.33;37.82;98863.50;4953483;28;20298;-67
2021/01/10 05:08:35;;;;;;;1.92;1.10;;;;;;;24.41;37.95;98863.53;4952810;28;20231;-67
2021/01/10 05:11:02;;;;;;;2.13;1.23;;;;;;;24.37;38.34;98872.88;4953900;28;20326;-67
2021/01/10 05:13:29;;;;;;;1.50;1.20;;;;;;;24.38;37.73;98859.34;4953960;28;20213;-67
2021/01/10 05:15:55;;;;;;;1.98;1.02;;;;;;;24.46;37.05;98865.72;4953522;28;20670;-67
2021/01/10 05:18:22;;;;;;;2.83;1.10;;;;;;;24.34;38.13;98871.34;4954928;28;20238;-67
2021/01/10 05:20:52;;;;;;;3.03;1.30;;;;;;;24.36;38.34;98869.38;4954389;28;20228;-66
2021/01/10 05:23:18;;;;;;;1.55;1.10;;;;;;;24.39;37.90;98874.38;4954995;28;20223;-67
2021/01/10 05:25:44;;;;;;;1.48;1.10;;;;;;;24.37;37.54;98873.69;4955357;28;20229;-67
2021/01/10 05:28:10;;;;;;;2.33;1.20;;;;;;;24.32;38.03;98878.69;4953160;28;20199;-67
2021/01/10 05:30:38;;;;;;;1.50;0.90;;;;;;;24.37;37.43;98879.03;4952911;28;20615;-67
2021/01/10 05:33:06;;;;;;;3.35;1.10;;;;;;;24.40;37.41;98872.56;4954179;28;20392;-65
2021/01/10 05:35:48;;;;;;;1.67;1.00;;;;;;;24.21;38.40;98870.97;4951884;28;20690;-67
2021/01/10 05:38:25;;;;;;;3.10;1.20;;;;;;;24.27;38.57;98875.69;4952965;28;20655;-66
2021/01/10 05:40:53;;;;;;;1.13;0.80;;;;;;;24.37;38.12;98871.03;4952662;28;20214;-67
2021/01/10 05:43:20;;;;;;;1.85;1.10;;;;;;;24.42;37.90;98878.56;4952416;28;20559;-67
2021/01/10 05:45:47;;;;;;;3.53;1.08;;;;;;;24.47;37.47;98872.75;4951496;28;20229;-66
2021/01/10 05:48:14;;;;;;;1.77;0.98;;;;;;;24.50;37.26;98880.44;4953148;28;20214;-67
2021/01/10 05:50:43;;;;;;;3.80;1.20;;;;;;;24.53;37.43;98872.94;4954222;28;20225;-67
2021/01/10 05:53:22;;;;;;;2.17;1.13;;;;;;;24.51;38.11;98882.09;4953274;28;20211;-66
2021/01/10 05:55:56;;;;;;;2.17;1.02;;;;;;;24.50;37.66;98880.44;4952750;28;20603;-66
2021/01/10 05:58:26;;;;;;;1.58;1.00;;;;;;;24.56;37.45;98879.81;4953129;28;20206;-67
2021/01/10 06:00:54;;;;;;;2.78;1.10;;;;;;;24.62;36.98;98884.50;4953440;28;20214;-67
2021/01/10 06:03:22;;;;;;;1.52;0.90;;;;;;;24.54;37.70;98879.09;4952433;28;20253;-66
2021/01/10 06:05:59;;;;;;;5.00;0.93;;;;;;;24.67;37.35;98876.00;4952880;28;20293;-67
2021/01/10 06:08:30;;;;;;;2.28;1.05;;;;;;;24.65;37.87;98886.84;4952532;28;20230;-67
2021/01/10 06:11:18;;;;;;;2.13;0.90;;;;;;;24.73;36.25;98884.19;4953471;28;20626;-67
2021/01/10 06:13:50;;;;;;;2.25;1.02;;;;;;;24.80;36.75;98891.53;4953146;28;20569;-66
2021/01/10 06:16:17;;;;;;;3.63;1.10;;;;;;;24.77;36.59;98882.03;4951764;28;20209;-67
2021/01/10 06:18:45;;;;;;;1.73;1.10;;;;;;;24.81;37.21;98867.31;4951702;28;20226;-66
2021/01/10 06:21:20;;;;;;;3.58;0.90;;;;;;;24.84;36.50;98872.34;4951986;28;20669;-66
2021/01/10 06:23:52;;;;;;;2.63;1.05;;;;;;;24.85;36.59;98878.53;4952083;28;20230;-66
2021/01/10 06:26:21;;;;;;;6.57;1.40;;;;;;;24.88;36.10;98878.19;4952836;28;20202;-66
2021/01/10 06:28:52;;;;;;;2.15;1.25;;;;;;;24.82;36.47;98871.66;4951668;28;20571;-65
2021/01/10 06:31:28;;;;;;;2.17;1.15;;;;;;;24.96;36.88;98878.19;4952671;28;20260;-66
2021/01/10 06:34:02;;;;;;;1.13;0.98;;;;;;;24.81;36.64;98871.84;4951942;28;20634;-64
2021/01/10 06:36:31;;;;;;;1.95;1.00;;;;;;;24.74;36.94;98877.00;4951850;28;20214;-66
2021/01/10 06:39:06;;;;;;;2.15;1.20;;;;;;;24.66;37.67;98874.31;4952366;28;20233;-65
2021/01/10 06:42:06;;;;;;;1.75;1.00;;;;;;;24.66;36.80;98877.81;4951157;28;20210;-67
2021/01/10 06:44:37;;;;;;;1.17;0.95;;;;;;;24.68;36.89;98873.16;4953474;28;20255;-67
2021/01/10 06:47:05;;;;;;;1.75;1.15;;;;;;;24.71;37.64;98877.31;4952007;28;20661;-67
2021/01/10 06:49:32;;;;;;;1.80;1.08;;;;;;;24.77;37.27;98859.81;4953513;28;20219;-66
2021/01/10 06:52:00;;;;;;;1.20;0.88;;;;;;;24.80;37.83;98864.81;4950387;28;20635;-67
2021/01/10 06:54:27;;;;;;;1.17;0.75;;;;;;;24.84;37.09;98863.47;4952588;28;20203;-67
2021/01/10 06:56:54;;;;;;;1.70;1.00;;;;;;;24.81;36.66;98869.16;4951715;28;20210;-66
2021/01/10 06:59:21;;;;;;;1.48;1.10;;;;;;;24.84;37.35;98868.84;4953139;28;20734;-67
2021/01/10 07:02:02;;;;;;;1.17;0.88;;;;;;;24.92;37.54;98874.19;4952360;28;20552;-67
2021/01/10 07:05:00;;;;;;;1.70;1.00;;;;;;;24.90;36.82;98877.03;4950490;28;20226;-66
2021/01/10 07:07:37;;;;;;;1.52;1.00;;;;;;;24.87;37.68;98869.34;4953531;28;20362;-67
2021/01/10 07:10:07;;;;;;;2.20;0.80;;;;;;;24.88;36.91;98872.84;4952499;28;20230;-66
2021/01/10 07:12:33;;;;;;;0.93;0.82;;;;;;;24.84;36.83;98887.56;4951505;28;20258;-64
2021/01/10 07:15:25;;;;;;;1.00;0.90;;;;;;;24.85;36.56;98883.88;4952508;28;20570;-65
2021/01/10 07:18:16;;;;;;;1.42;0.80;;;;;;;24.84;37.56;98879.53;4952276;28;20206;-66
2021/01/10 07:20:44;;;;;;;2.00;1.33;;;;;;;24.91;36.95;98891.22;4941625;28;20206;-66
2021/01/10 07:23:40;;;;;;;2.13;1.25;;;;;;;24.81;36.35;98894.06;4950160;28;20278;-66
2021/01/10 07:26:39;;;;;;;2.00;1.33;;;;;;;24.87;36.85;98893.41;4911525;29;20214;-66
2021/01/10 07:29:27;;;;;;;2.35;1.35;;;;;;;24.87;36.23;98884.56;4950682;28;20566;-68
2021/01/10 07:31:54;;;;;;;2.13;1.60;;;;;;;24.91;35.84;98893.91;4951903;28;20240;-65
2021/01/10 07:34:21;;;;;;;1.80;1.30;;;;;;;24.94;35.50;98886.38;4951968;28;20272;-64
2021/01/10 07:36:50;;;;;;;4.75;1.40;;;;;;;24.92;36.23;98890.25;4953128;28;20245;-67
2021/01/10 07:39:17;;;;;;;1.70;1.20;;;;;;;24.85;35.45;98895.41;4955556;28;20223;-66
2021/01/10 07:41:43;;;;;;;1.75;1.17;;;;;;;24.90;35.53;98897.59;4953369;28;20262;-68
2021/01/10 07:44:10;;;;;;;1.90;1.48;;;;;;;24.94;35.70;98893.56;4954387;28;20230;-67
2021/01/10 07:47:00;;;;;;;2.10;1.30;;;;;;;24.90;35.65;98897.59;4954032;28;20625;-67
2021/01/10 07:49:28;;;;;;;2.10;1.45;;;;;;;24.88;36.21;98902.25;4954301;28;20281;-66
2021/01/10 07:51:56;;;;;;;2.33;1.33;;;;;;;24.85;36.71;98899.94;4955089;28;20217;-67
2021/01/10 07:54:53;;;;;;;2.63;1.40;;;;;;;24.92;35.62;98907.13;4954143;28;20343;-71
2021/01/10 07:57:29;;;;;;;3.95;1.48;;;;;;;25.00;36.48;98898.28;4956018;28;20211;-73
2021/01/10 08:00:14;;;;;;;5.45;1.67;;;;;;;25.06;35.12;98905.66;4955672;28;20248;-74
2021/01/10 08:02:52;;;;;;;2.15;1.60;;;;;;;25.11;34.60;98905.97;4934740;29;20207;-71
2021/01/10 08:05:20;;;;;;;4.65;1.88;;;;;;;25.28;34.12;98914.03;4935758;29;20233;-71
2021/01/10 08:07:51;;;;;;;2.58;1.40;;;;;;;25.06;35.25;98911.00;4935932;29;20211;-70
2021/01/10 08:10:18;;;;;;;5.72;1.75;;;;;;;25.02;35.78;98912.31;4936516;29;20235;-72
2021/01/10 08:12:44;;;;;;;1.38;0.98;;;;;;;25.02;36.00;98917.66;4947198;29;20607;-71
2021/01/10 08:15:12;;;;;;;2.95;1.42;;;;;;;25.09;36.66;98907.97;4954307;28;20575;-71
2021/01/10 08:17:38;;;;;;;2.05;1.38;;;;;;;25.17;36.42;98911.66;4954602;28;20203;-71
2021/01/10 08:20:06;;;;;;;2.65;1.23;;;;;;;25.18;36.40;98916.84;4955441;28;20365;-71
2021/01/10 08:22:33;;;;;;;5.65;1.25;;;;;;;25.30;36.64;98912.03;4958421;28;20215;-72
2021/01/10 08:25:00;;;;;;;6.50;1.42;;;;;;;25.20;36.91;98906.00;4958799;28;20231;-72
2021/01/10 08:27:26;;;;;;;9.40;1.55;;;;;;;25.26;35.80;98916.00;4958731;28;20202;-73
2021/01/10 08:29:53;;;;;;;8.63;1.65;;;;;;;25.30;35.83;98917.41;4955393;28;20670;-73
2021/01/10 08:32:20;;;;;;;11.40;1.42;;;;;;;25.34;35.96;98916.03;4958195;28;20309;-73
2021/01/10 08:34:47;;;;;;;16.23;1.25;;;;;;;25.28;36.40;98916.69;4966897;28;20203;-72
2021/01/10 08:37:15;;;;;;;5.22;1.33;;;;;;;25.41;35.96;98924.22;4961583;28;20335;-72
2021/01/10 08:39:41;;;;;;;5.28;1.50;;;;;;;25.36;35.19;98924.72;4954699;28;20227;-72
2021/01/10 08:42:08;;;;;;;6.65;2.03;;;;;;;25.33;35.59;98921.56;4954825;28;20207;-73
2021/01/10 08:44:34;;;;;;;5.63;1.15;;;;;;;25.36;35.88;98927.41;4953604;28;20315;-72
2021/01/10 08:47:06;;;;;;;3.03;1.17;;;;;;;25.38;35.69;98922.75;4953098;28;20302;-72
2021/01/10 08:49:32;;;;;;;4.13;1.20;;;;;;;25.38;35.83;98922.75;4955505;28;20230;-73
2021/01/10 08:52:04;;;;;;;3.40;1.60;;;;;;;25.40;35.80;98923.41;4954574;28;20328;-72
2021/01/10 08:54:30;;;;;;;4.25;1.40;;;;;;;25.39;36.28;98919.06;4955440;28;20619;-74
2021/01/10 08:56:57;;;;;;;4.00;1.27;;;;;;;25.39;37.29;98928.94;4953728;28;20770;-73
2021/01/10 08:59:35;;;;;;;5.90;2.05;;;;;;;25.42;35.58;98913.38;4954068;28;20725;-73
2021/01/10 09:02:06;;;;;;;6.43;1.80;;;;;;;25.52;36.19;98913.19;4954630;28;20290;-72
2021/01/10 09:04:38;;;;;;;6.93;1.33;;;;;;;25.47;35.74;98913.69;4954414;28;20598;-72
2021/01/10 09:07:14;;;;;;;10.30;1.90;;;;;;;25.45;36.83;98920.22;4934237;29;20249;-71
2021/01/10 09:09:47;;;;;;;16.02;1.80;;;;;;;25.56;36.60;98919.88;4935666;29;20246;-69
2021/01/10 09:12:22;;;;;;;15.77;2.58;;;;;;;25.66;36.57;98925.91;4934942;29;20347;-70
2021/01/10 09:14:54;;;;;;;6.15;1.83;;;;;;;25.57;36.34;98923.41;4936408;29;20302;-70
2021/01/10 09:17:26;;;;;;;11.95;2.45;;;;;;;26.04;36.50;98928.03;4935805;29;20262;-71
2021/01/10 09:19:59;;;;;;;7.13;2.20;;;;;;;25.89;35.49;98922.50;4935844;29;20250;-71
2021/01/10 09:22:30;;;;;;;4.70;1.80;;;;;;;25.78;35.25;98926.38;4939109;29;20707;-71
2021/01/10 09:24:57;;;;;;;6.70;1.75;;;;;;;25.70;35.50;98931.75;4953087;28;20227;-72
2021/01/10 09:27:23;;;;;;;10.73;1.98;;;;;;;25.51;36.48;98927.56;4953796;28;20260;-72
2021/01/10 09:29:50;;;;;;;13.43;2.08;;;;;;;25.47;37.03;98926.25;4952784;28;20254;-72
2021/01/10 09:32:23;;;;;;;12.15;2.00;;;;;;;25.23;36.14;98927.91;4972227;28;20296;-71
2021/01/10 09:34:56;;;;;;;14.23;2.22;;;;;;;25.31;37.06;98927.06;4973305;28;20542;-71
2021/01/10 09:37:30;;;;;;;12.23;1.70;;;;;;;25.55;36.42;98933.47;4973607;28;20237;-70
2021/01/10 09:40:07;;;;;;;6.78;1.60;;;;;;;25.65;36.82;98934.09;4967326;28;20223;-71
2021/01/10 09:42:44;;;;;;;8.80;1.90;;;;;;;25.66;37.86;98923.22;4954472;28;20256;-68
2021/01/10 09:45:13;;;;;;;15.98;1.83;;;;;;;25.42;38.39;98923.25;4953156;28;20229;-69
2021/01/10 09:47:40;;;;;;;20.80;2.33;;;;;;;25.42;37.58;98925.91;4954014;28;20313;-69
2021/01/10 09:50:11;;;;;;;13.23;2.35;;;;;;;25.33;37.66;98924.22;4954418;28;20293;-69
2021/01/10 09:52:47;;;;;;;6.68;2.33;;;;;;;25.33;36.55;98925.09;4953463;28;20345;-68
2021/01/10 09:55:14;;;;;;;12.80;2.20;;;;;;;25.32;37.02;98920.72;4952857;28;20210;-68
2021/01/10 09:57:40;;;;;;;12.20;1.90;;;;;;;25.28;36.61;98925.59;4954002;28;20207;-67
2021/01/10 10:00:13;;;;;;;12.85;2.40;;;;;;;25.23;36.44;98924.38;4950873;28;20227;-69
2021/01/10 10:02:41;;;;;;;9.35;2.40;;;;;;;25.25;36.63;98919.69;4954488;28;20210;-69
2021/01/10 10:05:15;;;;;;;5.20;2.03;;;;;;;25.22;35.97;98917.34;4952705;28;20237;-67
2021/01/10 10:07:42;;;;;;;8.38;2.30;;;;;;;25.22;35.84;98917.34;4954025;28;20246;-69
2021/01/10 10:10:20;;;;;;;5.35;1.83;;;;;;;25.24;35.39;98910.81;4953194;28;20690;-69
2021/01/10 10:13:04;;;;;;;7.93;2.10;;;;;;;25.18;35.27;98910.66;4951848;28;20254;-69
2021/01/10 10:15:37;;;;;;;6.93;2.40;;;;;;;25.10;34.74;98906.97;4953347;28;20209;-69
2021/01/10 10:18:05;;;;;;;4.07;2.15;;;;;;;25.11;36.11;98915.81;4953026;28;20206;-69
2021/01/10 10:20:32;;;;;;;5.70;1.80;;;;;;;25.02;36.01;98917.66;4954077;28;20215;-67
2021/01/10 10:23:08;;;;;;;4.13;1.90;;;;;;;24.89;35.48;98918.13;4952267;28;20689;-69
2021/01/10 10:25:34;;;;;;;5.05;2.20;;;;;;;24.82;36.23;98916.31;4953350;28;20617;-69
2021/01/10 10:28:01;;;;;;;8.25;2.25;;;;;;;24.80;35.83;98910.25;4951053;28;20207;-67
2021/01/10 10:30:28;;;;;;;3.92;2.10;;;;;;;24.66;35.58;98906.38;4951471;28;20233;-69
2021/01/10 10:32:55;;;;;;;4.18;1.90;;;;;;;24.62;36.53;98905.88;4953266;28;20659;-68
2021/01/10 10:35:23;;;;;;;4.90;1.73;;;;;;;24.59;36.26;98894.69;4952155;28;20689;-67
2021/01/10 10:37:50;;;;;;;8.07;2.17;;;;;;;24.57;35.64;98900.19;4953948;28;20214;-69
2021/01/10 10:40:17;;;;;;;8.05;1.90;;;;;;;24.56;35.25;98901.19;4953821;28;20226;-67
2021/01/10 10:42:43;;;;;;;7.18;1.88;;;;;;;24.55;35.39;98888.84;4955267;28;20267;-67
2021/01/10 10:45:11;;;;;;;12.27;2.28;;;;;;;24.58;36.79;98888.50;4953080;29;20229;-67
2021/01/10 10:47:38;;;;;;;10.68;1.83;;;;;;;24.60;35.93;98888.31;4953204;28;20211;-67
2021/01/10 10:50:05;;;;;;;4.63;1.80;;;;;;;24.60;36.08;98886.50;4952514;28;20237;-67
2021/01/10 10:52:32;;;;;;;7.25;1.92;;;;;;;24.56;36.80;98885.16;4952422;28;20242;-68
2021/01/10 10:54:58;;;;;;;7.20;1.83;;;;;;;24.46;37.22;98884.41;4951313;28;20663;-69
2021/01/10 10:57:25;;;;;;;5.20;1.50;;;;;;;24.47;37.55;98886.09;4952563;28;20202;-68
2021/01/10 10:59:51;;;;;;;2.95;1.52;;;;;;;24.48;37.49;98879.75;4952994;28;20218;-69
2021/01/10 11:02:17;;;;;;;5.07;2.28;;;;;;;24.47;37.12;98876.25;4951536;28;20211;-69
2021/01/10 11:04:45;;;;;;;5.93;1.70;;;;;;;24.60;37.48;98869.63;4951833;28;20690;-67
2021/01/10 11:07:12;;;;;;;3.85;1.55;;;;;;;24.55;37.10;98868.28;4951366;28;20266;-67
2021/01/10 11:09:39;;;;;;;6.80;1.88;;;;;;;24.59;36.77;98875.97;4950943;28;20219;-67
2021/01/10 11:12:09;;;;;;;4.93;1.60;;;;;;;24.55;36.91;98872.81;4950601;28;20603;-67
2021/01/10 11:14:35;;;;;;;5.25;1.50;;;;;;;24.60;36.97;98865.13;4952023;28;20199;-67
2021/01/10 11:17:04;;;;;;;4.63;1.63;;;;;;;24.60;36.96;98869.63;4950631;28;20574;-67
2021/01/10 11:19:30;;;;;;;7.05;1.85;;;;;;;24.60;37.71;98864.25;4950478;28;20233;-66
2021/01/10 11:21:56;;;;;;;6.57;1.73;;;;;;;24.64;38.18;98869.13;4951422;28;20236;-67
2021/01/10 11:24:22;;;;;;;5.28;1.80;;;;;;;24.72;37.50;98857.63;4951076;28;20260;-70
2021/01/10 11:26:49;;;;;;;8.88;1.98;;;;;;;24.77;37.61;98849.13;4950687;28;20218;-72
2021/01/10 11:29:17;;;;;;;6.03;1.38;;;;;;;24.79;36.92;98847.09;4950214;28;20265;-72
2021/01/10 11:31:43;;;;;;;3.88;1.30;;;;;;;24.84;37.94;98850.94;4951416;28;20226;-70
2021/01/10 11:34:11;;;;;;;7.18;1.70;;;;;;;24.89;37.56;98850.44;4951950;28;20519;-70
2021/01/10 11:36:41;;;;;;;5.38;1.60;;;;;;;24.85;37.92;98841.94;4951386;28;20293;-72
2021/01/10 11:39:08;;;;;;;11.43;2.13;;;;;;;24.94;38.02;98842.75;4951838;28;20222;-70
2021/01/10 11:41:34;;;;;;;8.75;2.38;;;;;;;24.95;38.88;98847.13;4949858;28;20539;-70